createdAt,value
2018-05-15T00:00:11.938Z,23.75
2018-05-15T00:01:14.415Z,23.75
2018-05-15T00:02:16.891Z,23.75
2018-05-15T00:03:19.362Z,23.76
2018-05-15T00:04:21.850Z,23.76
2018-05-15T00:05:24.325Z,23.75
2018-05-15T00:06:26.803Z,23.76
2018-05-15T00:07:29.277Z,23.76
2018-05-15T00:08:31.755Z,23.75
2018-05-15T00:09:34.251Z,23.75
2018-05-15T00:10:36.723Z,23.75
2018-05-15T00:11:39.198Z,23.74
2018-05-15T00:12:41.675Z,23.74
2018-05-15T00:13:44.143Z,23.74
2018-05-15T00:14:46.643Z,23.74
2018-05-15T00:15:49.118Z,23.74
2018-05-15T00:16:51.593Z,23.75
2018-05-15T00:17:54.070Z,23.75
2018-05-15T00:18:56.547Z,23.75
2018-05-15T00:19:59.035Z,23.76
2018-05-15T00:21:01.511Z,23.76
2018-05-15T00:22:03.986Z,23.76
2018-05-15T00:23:06.469Z,23.76
2018-05-15T00:24:08.951Z,23.76
2018-05-15T00:25:11.503Z,23.77
2018-05-15T00:26:14.004Z,23.77
2018-05-15T00:27:16.486Z,23.77
2018-05-15T00:28:18.952Z,23.78
2018-05-15T00:29:21.428Z,23.79
2018-05-15T00:30:23.914Z,23.78
2018-05-15T00:31:26.390Z,23.79
2018-05-15T00:32:28.866Z,23.78
2018-05-15T00:33:31.336Z,23.77
2018-05-15T00:34:33.806Z,23.77
2018-05-15T00:35:36.301Z,23.77
2018-05-15T00:36:38.772Z,23.78
2018-05-15T00:37:41.238Z,23.78
2018-05-15T00:38:43.707Z,23.79
2018-05-15T00:39:46.186Z,23.78
2018-05-15T00:40:48.668Z,23.79
2018-05-15T00:41:51.163Z,23.79
2018-05-15T00:42:53.640Z,23.79
2018-05-15T00:43:56.110Z,23.79
2018-05-15T00:44:58.579Z,23.78
2018-05-15T00:46:01.068Z,23.79
2018-05-15T00:47:03.539Z,23.79
2018-05-15T00:48:06.013Z,23.78
2018-05-15T00:49:08.561Z,23.78
2018-05-15T00:50:11.072Z,23.78
2018-05-15T00:51:13.634Z,23.78
2018-05-15T00:52:16.144Z,23.76
2018-05-15T00:53:18.638Z,23.76
2018-05-15T00:54:21.133Z,23.76
2018-05-15T00:55:35.490Z,23.76
2018-05-15T00:56:37.975Z,23.75
2018-05-15T00:57:40.461Z,23.75
2018-05-15T00:58:42.938Z,23.75
2018-05-15T00:59:45.429Z,23.74
2018-05-15T01:00:47.939Z,23.74
2018-05-15T01:01:50.447Z,23.74
2018-05-15T01:02:52.949Z,23.74
2018-05-15T01:03:55.437Z,23.74
2018-05-15T01:04:57.925Z,23.73
2018-05-15T01:06:00.412Z,23.73
2018-05-15T01:07:02.926Z,23.73
2018-05-15T01:08:05.417Z,23.73
2018-05-15T01:09:07.909Z,23.72
2018-05-15T01:10:10.412Z,23.72
2018-05-15T01:11:12.888Z,23.72
2018-05-15T01:12:15.411Z,23.72
2018-05-15T01:13:18.005Z,23.72
2018-05-15T01:14:20.489Z,23.73
2018-05-15T01:15:22.987Z,23.72
2018-05-15T01:16:25.461Z,23.72
2018-05-15T01:17:27.973Z,23.73
2018-05-15T01:18:30.443Z,23.73
2018-05-15T01:19:32.964Z,23.73
2018-05-15T01:20:35.441Z,23.73
2018-05-15T01:21:37.941Z,23.74
2018-05-15T01:22:40.430Z,23.74
2018-05-15T01:23:42.917Z,23.76
2018-05-15T01:24:45.404Z,23.76
2018-05-15T01:25:47.909Z,23.77
2018-05-15T01:26:50.421Z,23.77
2018-05-15T01:27:52.940Z,23.78
2018-05-15T01:28:55.439Z,23.79
2018-05-15T01:29:57.929Z,23.78
2018-05-15T01:31:00.406Z,23.78
2018-05-15T01:32:02.882Z,23.78
2018-05-15T01:33:05.395Z,23.78
2018-05-15T01:34:07.885Z,23.79
2018-05-15T01:35:10.367Z,23.79
2018-05-15T01:36:12.854Z,23.79
2018-05-15T01:37:15.339Z,23.79
2018-05-15T01:38:17.849Z,23.78
2018-05-15T01:39:20.357Z,23.79
2018-05-15T01:40:22.864Z,23.78
2018-05-15T01:41:25.371Z,23.79
2018-05-15T01:42:27.888Z,23.78
2018-05-15T01:43:30.423Z,23.79
2018-05-15T01:44:32.921Z,23.77
2018-05-15T01:45:35.398Z,23.79
2018-05-15T01:46:37.893Z,23.78
2018-05-15T01:47:40.362Z,23.77
2018-05-15T01:48:42.888Z,23.77
2018-05-15T01:49:45.373Z,23.78
2018-05-15T01:50:47.860Z,23.77
2018-05-15T01:51:50.356Z,23.78
2018-05-15T01:52:52.843Z,23.77
2018-05-15T01:53:55.367Z,23.77
2018-05-15T01:54:57.860Z,23.77
2018-05-15T01:56:00.358Z,23.77
2018-05-15T01:57:02.867Z,23.77
2018-05-15T01:58:05.375Z,23.78
2018-05-15T01:59:07.876Z,23.77
2018-05-15T02:00:10.400Z,23.78
2018-05-15T02:01:12.927Z,23.77
2018-05-15T02:02:15.417Z,23.77
2018-05-15T02:03:17.931Z,23.77
2018-05-15T02:04:20.439Z,23.78
2018-05-15T02:05:22.947Z,23.78
2018-05-15T02:06:25.445Z,23.79
2018-05-15T02:07:27.937Z,23.78
2018-05-15T02:08:30.443Z,23.79
2018-05-15T02:09:32.949Z,23.79
2018-05-15T02:10:35.453Z,23.80
2018-05-15T02:11:37.945Z,23.80
2018-05-15T02:12:40.439Z,23.80
2018-05-15T02:13:42.944Z,23.81
2018-05-15T02:14:45.452Z,23.81
2018-05-15T02:15:47.941Z,23.80
2018-05-15T02:16:50.414Z,23.80
2018-05-15T02:17:52.906Z,23.79
2018-05-15T02:18:55.497Z,23.79
2018-05-15T02:19:57.988Z,23.79
2018-05-15T02:21:00.481Z,23.79
2018-05-15T02:22:02.979Z,23.78
2018-05-15T02:23:05.487Z,23.77
2018-05-15T02:24:07.980Z,23.76
2018-05-15T02:25:10.553Z,23.76
2018-05-15T02:26:13.040Z,23.75
2018-05-15T02:27:15.540Z,23.76
2018-05-15T02:28:18.048Z,23.77
2018-05-15T02:29:20.537Z,23.77
2018-05-15T02:30:23.092Z,23.78
2018-05-15T02:31:25.563Z,23.79
2018-05-15T02:32:28.061Z,23.81
2018-05-15T02:33:30.551Z,23.82
2018-05-15T02:34:33.063Z,23.82
2018-05-15T02:35:35.655Z,23.82
2018-05-15T02:36:38.160Z,23.83
2018-05-15T02:37:40.650Z,23.82
2018-05-15T02:38:43.141Z,23.81
2018-05-15T02:39:45.638Z,23.82
2018-05-15T02:40:48.155Z,23.81
2018-05-15T02:41:50.649Z,23.82
2018-05-15T02:42:53.138Z,23.80
2018-05-15T02:43:55.615Z,23.80
2018-05-15T02:44:58.127Z,23.79
2018-05-15T02:46:00.641Z,23.79
2018-05-15T02:47:03.112Z,23.78
2018-05-15T02:48:05.645Z,23.78
2018-05-15T02:49:08.135Z,23.77
2018-05-15T02:50:10.644Z,23.76
2018-05-15T02:51:13.287Z,23.77
2018-05-15T02:52:15.791Z,23.77
2018-05-15T02:53:18.300Z,23.77
2018-05-15T02:54:20.809Z,23.77
2018-05-15T02:55:23.295Z,23.76
2018-05-15T02:56:25.840Z,23.76
2018-05-15T02:57:28.326Z,23.75
2018-05-15T02:58:30.827Z,23.76
2018-05-15T02:59:33.315Z,23.75
2018-05-15T03:00:37.211Z,23.75
2018-05-15T03:01:40.178Z,23.75
2018-05-15T03:02:43.135Z,23.75
2018-05-15T03:03:45.654Z,23.76
2018-05-15T03:04:48.478Z,23.75
2018-05-15T03:05:51.015Z,23.75
2018-05-15T03:06:53.540Z,23.75
2018-05-15T03:07:56.058Z,23.74
2018-05-15T03:08:58.535Z,23.74
2018-05-15T03:10:01.024Z,23.73
2018-05-15T03:11:03.539Z,23.72
2018-05-15T03:12:06.064Z,23.72
2018-05-15T03:13:08.590Z,23.71
2018-05-15T03:14:11.091Z,23.71
2018-05-15T03:15:13.596Z,23.69
2018-05-15T03:16:16.090Z,23.69
2018-05-15T03:17:18.619Z,23.69
2018-05-15T03:18:21.109Z,23.69
2018-05-15T03:19:23.586Z,23.69
2018-05-15T03:20:26.088Z,23.69
2018-05-15T03:21:28.575Z,23.69
2018-05-15T03:22:31.099Z,23.70
2018-05-15T03:23:33.593Z,23.70
2018-05-15T03:24:36.084Z,23.70
2018-05-15T03:25:38.556Z,23.71
2018-05-15T03:26:41.045Z,23.70
2018-05-15T03:27:43.549Z,23.69
2018-05-15T03:28:46.056Z,23.68
2018-05-15T03:29:48.549Z,23.69
2018-05-15T03:30:51.060Z,23.69
2018-05-15T03:31:53.651Z,23.68
2018-05-15T03:32:56.123Z,23.67
2018-05-15T03:33:58.608Z,23.68
2018-05-15T03:35:01.112Z,23.68
2018-05-15T03:36:03.615Z,23.68
2018-05-15T03:37:06.093Z,23.67
2018-05-15T03:38:08.586Z,23.67
2018-05-15T03:39:11.080Z,23.67
2018-05-15T03:40:13.725Z,23.68
2018-05-15T03:41:16.235Z,23.67
2018-05-15T03:42:18.789Z,23.67
2018-05-15T03:43:21.286Z,23.66
2018-05-15T03:44:23.773Z,23.66
2018-05-15T03:45:26.254Z,23.67
2018-05-15T03:46:28.749Z,23.67
2018-05-15T03:47:31.247Z,23.67
2018-05-15T03:48:33.767Z,23.67
2018-05-15T03:49:36.272Z,23.66
2018-05-15T03:50:38.766Z,23.66
2018-05-15T03:51:41.243Z,23.66
2018-05-15T03:52:43.739Z,23.67
2018-05-15T03:53:46.234Z,23.67
2018-05-15T03:54:48.760Z,23.66
2018-05-15T03:55:51.254Z,23.66
2018-05-15T03:56:53.729Z,23.65
2018-05-15T03:57:56.439Z,23.66
2018-05-15T03:58:58.944Z,23.65
2018-05-15T04:00:01.432Z,23.65
2018-05-15T04:01:15.926Z,23.64
2018-05-15T04:02:30.121Z,23.64
2018-05-15T04:03:44.547Z,23.64
2018-05-15T04:04:59.029Z,23.63
2018-05-15T04:06:13.319Z,23.62
2018-05-15T04:07:27.603Z,23.62
2018-05-15T04:08:30.079Z,23.62
2018-05-15T04:09:32.572Z,23.63
2018-05-15T04:10:35.058Z,23.62
2018-05-15T04:11:37.532Z,23.62
2018-05-15T04:12:40.012Z,23.62
2018-05-15T04:13:42.482Z,23.62
2018-05-15T04:14:44.982Z,23.61
2018-05-15T04:15:47.478Z,23.61
2018-05-15T04:16:49.946Z,23.62
2018-05-15T04:17:52.432Z,23.63
2018-05-15T04:18:54.932Z,23.62
2018-05-15T04:19:57.438Z,23.62
2018-05-15T04:20:59.959Z,23.62
2018-05-15T04:22:02.447Z,23.62
2018-05-15T04:23:04.934Z,23.62
2018-05-15T04:24:07.444Z,23.63
2018-05-15T04:25:09.951Z,23.64
2018-05-15T04:26:12.444Z,23.64
2018-05-15T04:27:14.937Z,23.65
2018-05-15T04:28:17.492Z,23.65
2018-05-15T04:29:19.929Z,23.66
2018-05-15T04:30:22.406Z,23.66
2018-05-15T04:31:24.933Z,23.66
2018-05-15T04:32:27.407Z,23.67
2018-05-15T04:33:29.882Z,23.68
2018-05-15T04:34:32.364Z,23.69
2018-05-15T04:35:34.857Z,23.69
2018-05-15T04:36:37.346Z,23.69
2018-05-15T04:37:39.964Z,23.69
2018-05-15T04:38:42.456Z,23.69
2018-05-15T04:39:44.963Z,23.68
2018-05-15T04:40:47.448Z,23.67
2018-05-15T04:41:49.987Z,23.67
2018-05-15T04:42:52.477Z,23.66
2018-05-15T04:43:55.016Z,23.65
2018-05-15T04:44:57.455Z,23.65
2018-05-15T04:45:59.965Z,23.64
2018-05-15T04:47:02.506Z,23.63
2018-05-15T04:48:04.986Z,23.62
2018-05-15T04:49:07.476Z,23.61
2018-05-15T04:50:09.974Z,23.61
2018-05-15T04:51:12.461Z,23.61
2018-05-15T04:52:14.989Z,23.60
2018-05-15T04:53:17.478Z,23.60
2018-05-15T04:54:19.972Z,23.60
2018-05-15T04:55:22.483Z,23.59
2018-05-15T04:56:24.970Z,23.58
2018-05-15T04:57:27.492Z,23.58
2018-05-15T04:58:30.011Z,23.58
2018-05-15T04:59:32.538Z,23.58
2018-05-15T05:00:35.028Z,23.57
2018-05-15T05:01:37.521Z,23.57
2018-05-15T05:02:40.056Z,23.57
2018-05-15T05:03:42.556Z,23.57
2018-05-15T05:04:45.118Z,23.58
2018-05-15T05:05:47.595Z,23.57
2018-05-15T05:06:50.077Z,23.59
2018-05-15T05:07:52.615Z,23.60
2018-05-15T05:08:55.109Z,23.61
2018-05-15T05:09:57.600Z,23.60
2018-05-15T05:11:00.097Z,23.60
2018-05-15T05:12:02.588Z,23.61
2018-05-15T05:13:05.109Z,23.60
2018-05-15T05:14:07.610Z,23.59
2018-05-15T05:15:10.181Z,23.59
2018-05-15T05:16:12.684Z,23.58
2018-05-15T05:17:15.181Z,23.58
2018-05-15T05:18:17.698Z,23.58
2018-05-15T05:19:20.197Z,23.57
2018-05-15T05:20:22.696Z,23.59
2018-05-15T05:21:25.176Z,23.61
2018-05-15T05:22:27.650Z,23.60
2018-05-15T05:23:30.146Z,23.60
2018-05-15T05:24:32.692Z,23.59
2018-05-15T05:25:35.184Z,23.57
2018-05-15T05:26:37.753Z,23.55
2018-05-15T05:27:40.221Z,23.50
2018-05-15T05:28:42.769Z,23.42
2018-05-15T05:29:45.283Z,23.40
2018-05-15T05:30:47.766Z,23.39
2018-05-15T05:31:50.297Z,23.38
2018-05-15T05:32:52.801Z,23.42
2018-05-15T05:33:55.290Z,23.39
2018-05-15T05:34:57.777Z,23.33
2018-05-15T05:36:00.271Z,23.27
2018-05-15T05:37:02.779Z,23.19
2018-05-15T05:38:05.300Z,23.12
2018-05-15T05:39:07.822Z,23.03
2018-05-15T05:40:10.391Z,22.99
2018-05-15T05:41:12.877Z,22.94
2018-05-15T05:42:15.367Z,22.90
2018-05-15T05:43:17.896Z,22.79
2018-05-15T05:44:20.410Z,22.77
2018-05-15T05:45:22.917Z,22.73
2018-05-15T05:46:25.477Z,22.69
2018-05-15T05:47:27.973Z,22.64
2018-05-15T05:48:30.475Z,22.60
2018-05-15T05:49:32.991Z,22.52
2018-05-15T05:50:35.564Z,22.51
2018-05-15T05:51:38.056Z,22.48
2018-05-15T05:52:40.522Z,22.44
2018-05-15T05:53:43.049Z,22.39
2018-05-15T05:54:45.591Z,22.35
2018-05-15T05:55:48.062Z,22.29
2018-05-15T05:56:50.580Z,22.22
2018-05-15T05:57:53.055Z,22.17
2018-05-15T05:58:55.545Z,22.15
2018-05-15T05:59:58.058Z,22.12
2018-05-15T06:01:00.596Z,22.11
2018-05-15T06:02:03.102Z,22.08
2018-05-15T06:03:05.570Z,22.08
2018-05-15T06:04:08.075Z,22.06
2018-05-15T06:05:10.603Z,22.04
2018-05-15T06:06:13.098Z,22.03
2018-05-15T06:07:15.600Z,22.02
2018-05-15T06:08:18.097Z,22.00
2018-05-15T06:09:20.596Z,21.98
2018-05-15T06:10:23.144Z,21.97
2018-05-15T06:11:25.651Z,21.96
2018-05-15T06:12:28.155Z,21.94
2018-05-15T06:13:30.651Z,21.88
2018-05-15T06:14:33.154Z,21.84
2018-05-15T06:15:35.680Z,21.83
2018-05-15T06:16:38.162Z,21.75
2018-05-15T06:17:40.635Z,21.71
2018-05-15T06:18:43.151Z,21.70
2018-05-15T06:19:45.645Z,21.71
2018-05-15T06:20:48.188Z,21.71
2018-05-15T06:21:50.674Z,21.70
2018-05-15T06:22:53.227Z,21.70
2018-05-15T06:23:55.725Z,21.70
2018-05-15T06:24:58.240Z,21.65
2018-05-15T06:26:00.745Z,21.64
2018-05-15T06:27:03.273Z,21.65
2018-05-15T06:28:05.746Z,21.64
2018-05-15T06:29:08.228Z,21.63
2018-05-15T06:30:10.735Z,21.62
2018-05-15T06:31:13.245Z,21.61
2018-05-15T06:32:15.814Z,21.62
2018-05-15T06:33:18.277Z,21.64
2018-05-15T06:34:20.750Z,21.66
2018-05-15T06:35:23.241Z,21.70
2018-05-15T06:36:25.761Z,21.75
2018-05-15T06:37:28.253Z,21.79
2018-05-15T06:38:30.813Z,21.82
2018-05-15T06:39:33.293Z,21.87
2018-05-15T06:40:35.778Z,21.90
2018-05-15T06:41:38.293Z,21.93
2018-05-15T06:42:40.789Z,21.97
2018-05-15T06:43:43.282Z,22.00
2018-05-15T06:44:45.818Z,22.03
2018-05-15T06:45:48.319Z,22.06
2018-05-15T06:46:50.809Z,22.08
2018-05-15T06:47:53.287Z,22.09
2018-05-15T06:48:55.775Z,22.12
2018-05-15T06:49:58.269Z,22.13
2018-05-15T06:51:00.742Z,22.16
2018-05-15T06:52:03.249Z,22.17
2018-05-15T06:53:05.726Z,22.19
2018-05-15T06:54:08.225Z,22.20
2018-05-15T06:55:10.709Z,22.21
2018-05-15T06:56:13.210Z,22.23
2018-05-15T06:57:15.733Z,22.26
2018-05-15T06:58:18.233Z,22.29
2018-05-15T06:59:20.742Z,22.31
2018-05-15T07:00:23.234Z,22.32
2018-05-15T07:01:25.747Z,22.35
2018-05-15T07:02:28.252Z,22.36
2018-05-15T07:03:30.745Z,22.39
2018-05-15T07:04:33.247Z,22.41
2018-05-15T07:05:35.761Z,22.44
2018-05-15T07:06:38.276Z,22.46
2018-05-15T07:07:40.869Z,22.49
2018-05-15T07:08:43.299Z,22.50
2018-05-15T07:09:45.788Z,22.52
2018-05-15T07:10:48.297Z,22.54
2018-05-15T07:11:50.791Z,22.56
2018-05-15T07:12:53.313Z,22.57
2018-05-15T07:13:56.260Z,22.59
2018-05-15T07:14:58.743Z,22.61
2018-05-15T07:16:01.231Z,22.62
2018-05-15T07:17:03.717Z,22.63
2018-05-15T07:18:06.240Z,22.65
2018-05-15T07:19:08.819Z,22.66
2018-05-15T07:20:11.290Z,22.67
2018-05-15T07:21:13.824Z,22.68
2018-05-15T07:22:16.299Z,22.68
2018-05-15T07:23:18.808Z,22.69
2018-05-15T07:24:21.306Z,22.71
2018-05-15T07:25:23.816Z,22.71
2018-05-15T07:26:26.333Z,22.72
2018-05-15T07:27:28.891Z,22.72
2018-05-15T07:28:31.379Z,22.72
2018-05-15T07:29:33.866Z,22.73
2018-05-15T07:30:36.381Z,22.73
2018-05-15T07:31:38.960Z,22.74
2018-05-15T07:32:41.406Z,22.75
2018-05-15T07:33:43.906Z,22.74
2018-05-15T07:34:46.413Z,22.72
2018-05-15T07:35:48.917Z,22.72
2018-05-15T07:36:51.413Z,22.69
2018-05-15T07:37:53.897Z,22.68
2018-05-15T07:38:56.390Z,22.66
2018-05-15T07:40:00.710Z,22.65
2018-05-15T07:41:03.231Z,22.64
2018-05-15T07:42:05.747Z,22.64
2018-05-15T07:43:08.265Z,22.64
2018-05-15T07:44:10.783Z,22.63
2018-05-15T07:45:13.277Z,22.64
2018-05-15T07:46:15.792Z,22.64
2018-05-15T07:47:18.274Z,22.66
2018-05-15T07:48:20.822Z,22.66
2018-05-15T07:49:23.342Z,22.67
2018-05-15T07:50:25.837Z,22.68
2018-05-15T07:51:28.341Z,22.69
2018-05-15T07:52:30.843Z,22.69
2018-05-15T07:53:33.426Z,22.71
2018-05-15T07:54:35.890Z,22.72
2018-05-15T07:55:38.370Z,22.73
2018-05-15T07:56:41.767Z,22.74
2018-05-15T07:57:44.956Z,22.75
2018-05-15T07:58:48.870Z,22.76
2018-05-15T07:59:53.108Z,22.77
2018-05-15T08:00:57.088Z,22.78
2018-05-15T08:02:01.040Z,22.80
2018-05-15T08:03:03.770Z,22.83
2018-05-15T08:04:06.269Z,22.84
2018-05-15T08:05:08.799Z,22.84
2018-05-15T08:06:11.279Z,22.86
2018-05-15T08:07:13.769Z,22.90
2018-05-15T08:08:16.264Z,22.91
2018-05-15T08:09:18.743Z,22.91
2018-05-15T08:10:21.273Z,22.92
2018-05-15T08:11:23.750Z,22.92
2018-05-15T08:12:26.255Z,22.93
2018-05-15T08:13:28.748Z,22.94
2018-05-15T08:14:31.230Z,22.95
2018-05-15T08:15:33.722Z,22.96
2018-05-15T08:16:36.240Z,22.97
2018-05-15T08:17:38.752Z,22.98
2018-05-15T08:18:41.249Z,22.98
2018-05-15T08:19:43.731Z,22.98
2018-05-15T08:20:46.251Z,22.98
2018-05-15T08:21:48.739Z,22.98
2018-05-15T08:22:51.221Z,22.98
2018-05-15T08:23:53.702Z,22.98
2018-05-15T08:24:56.205Z,22.97
2018-05-15T08:25:58.732Z,22.98
2018-05-15T08:27:01.234Z,22.98
2018-05-15T08:28:03.734Z,22.99
2018-05-15T08:29:06.246Z,22.98
2018-05-15T08:30:08.755Z,22.98
2018-05-15T08:31:11.259Z,22.98
2018-05-15T08:32:13.749Z,22.99
2018-05-15T08:33:16.247Z,22.99
2018-05-15T08:34:18.729Z,23.00
2018-05-15T08:35:21.253Z,22.99
2018-05-15T08:36:23.766Z,22.99
2018-05-15T08:37:26.336Z,22.99
2018-05-15T08:38:28.866Z,22.99
2018-05-15T08:39:31.408Z,23.00
2018-05-15T08:40:33.920Z,23.00
2018-05-15T08:41:36.423Z,22.99
2018-05-15T08:42:38.922Z,22.99
2018-05-15T08:43:41.414Z,23.01
2018-05-15T08:44:43.924Z,23.01
2018-05-15T08:45:46.439Z,23.00
2018-05-15T08:46:48.972Z,23.01
2018-05-15T08:47:51.484Z,23.01
2018-05-15T08:48:53.973Z,23.02
2018-05-15T08:49:56.466Z,23.02
2018-05-15T08:50:58.946Z,23.02
2018-05-15T08:52:01.473Z,23.03
2018-05-15T08:53:03.966Z,23.03
2018-05-15T08:54:06.443Z,23.03
2018-05-15T08:55:08.957Z,23.04
2018-05-15T08:56:11.458Z,23.03
2018-05-15T08:57:13.987Z,23.03
2018-05-15T08:58:16.490Z,23.04
2018-05-15T08:59:18.999Z,23.04
2018-05-15T09:00:21.512Z,23.05
2018-05-15T09:01:24.012Z,23.05
2018-05-15T09:02:26.533Z,23.05
2018-05-15T09:03:29.043Z,23.04
2018-05-15T09:04:31.545Z,23.05
2018-05-15T09:05:34.023Z,23.05
2018-05-15T09:06:36.525Z,23.06
2018-05-15T09:07:39.054Z,23.06
2018-05-15T09:08:41.552Z,23.05
2018-05-15T09:09:44.067Z,23.05
2018-05-15T09:10:46.581Z,23.06
2018-05-15T09:11:49.091Z,23.07
2018-05-15T09:12:51.599Z,23.06
2018-05-15T09:13:54.090Z,23.07
2018-05-15T09:14:56.939Z,23.07
2018-05-15T09:15:59.583Z,23.07
2018-05-15T09:17:02.070Z,23.06
2018-05-15T09:18:04.612Z,23.07
2018-05-15T09:19:07.150Z,23.07
2018-05-15T09:20:09.659Z,23.07
2018-05-15T09:21:12.139Z,23.08
2018-05-15T09:22:14.639Z,23.08
2018-05-15T09:23:17.172Z,23.08
2018-05-15T09:24:19.665Z,23.09
2018-05-15T09:25:22.148Z,23.09
2018-05-15T09:26:24.676Z,23.10
2018-05-15T09:27:28.512Z,23.10
2018-05-15T09:28:31.176Z,23.10
2018-05-15T09:29:33.684Z,23.10
2018-05-15T09:30:36.177Z,23.11
2018-05-15T09:31:38.665Z,23.11
2018-05-15T09:32:41.169Z,23.11
2018-05-15T09:33:43.686Z,23.12
2018-05-15T09:34:46.209Z,23.11
2018-05-15T09:35:48.728Z,23.11
2018-05-15T09:36:51.233Z,23.12
2018-05-15T09:37:53.714Z,23.12
2018-05-15T09:38:56.233Z,23.12
2018-05-15T09:39:58.725Z,23.12
2018-05-15T09:41:01.199Z,23.12
2018-05-15T09:42:03.766Z,23.12
2018-05-15T09:43:06.281Z,23.12
2018-05-15T09:44:08.783Z,23.13
2018-05-15T09:45:11.277Z,23.13
2018-05-15T09:46:13.763Z,23.13
2018-05-15T09:47:16.268Z,23.12
2018-05-15T09:48:18.759Z,23.12
2018-05-15T09:49:21.287Z,23.13
2018-05-15T09:50:23.800Z,23.13
2018-05-15T09:51:26.296Z,23.13
2018-05-15T09:52:28.874Z,23.14
2018-05-15T09:53:31.367Z,23.14
2018-05-15T09:54:33.904Z,23.14
2018-05-15T09:55:36.395Z,23.14
2018-05-15T09:56:38.925Z,23.14
2018-05-15T09:57:41.450Z,23.14
2018-05-15T09:58:43.964Z,23.14
2018-05-15T09:59:46.473Z,23.14
2018-05-15T10:00:48.955Z,23.14
2018-05-15T10:01:51.434Z,23.14
2018-05-15T10:02:53.934Z,23.14
2018-05-15T10:03:56.426Z,23.14
2018-05-15T10:04:58.923Z,23.15
2018-05-15T10:06:01.421Z,23.15
2018-05-15T10:07:03.918Z,23.15
2018-05-15T10:08:06.452Z,23.15
2018-05-15T10:09:09.018Z,23.16
2018-05-15T10:10:11.555Z,23.16
2018-05-15T10:11:14.045Z,23.16
2018-05-15T10:12:16.523Z,23.16
2018-05-15T10:13:19.021Z,23.16
2018-05-15T10:14:21.517Z,23.16
2018-05-15T10:15:24.033Z,23.17
2018-05-15T10:16:26.529Z,23.17
2018-05-15T10:17:29.013Z,23.17
2018-05-15T10:18:31.512Z,23.17
2018-05-15T10:19:34.005Z,23.18
2018-05-15T10:20:36.504Z,23.17
2018-05-15T10:21:38.986Z,23.18
2018-05-15T10:22:41.485Z,23.18
2018-05-15T10:23:43.990Z,23.19
2018-05-15T10:24:46.504Z,23.18
2018-05-15T10:25:49.003Z,23.19
2018-05-15T10:26:51.501Z,23.19
2018-05-15T10:27:54.004Z,23.20
2018-05-15T10:28:56.557Z,23.20
2018-05-15T10:29:59.150Z,23.20
2018-05-15T10:31:01.614Z,23.19
2018-05-15T10:32:04.107Z,23.21
2018-05-15T10:33:06.587Z,23.20
2018-05-15T10:34:09.071Z,23.20
2018-05-15T10:35:11.573Z,23.21
2018-05-15T10:36:14.075Z,23.22
2018-05-15T10:37:16.636Z,23.21
2018-05-15T10:38:19.047Z,23.22
2018-05-15T10:39:21.523Z,23.22
2018-05-15T10:40:24.010Z,23.22
2018-05-15T10:41:26.502Z,23.22
2018-05-15T10:42:29.008Z,23.22
2018-05-15T10:43:31.486Z,23.22
2018-05-15T10:44:33.960Z,23.25
2018-05-15T10:45:36.463Z,23.25
2018-05-15T10:46:39.008Z,23.25
2018-05-15T10:47:41.499Z,23.24
2018-05-15T10:48:43.996Z,23.25
2018-05-15T10:49:46.490Z,23.25
2018-05-15T10:50:49.064Z,23.26
2018-05-15T10:51:51.514Z,23.26
2018-05-15T10:52:54.020Z,23.26
2018-05-15T10:53:56.537Z,23.27
2018-05-15T10:54:59.052Z,23.27
2018-05-15T10:56:01.564Z,23.27
2018-05-15T10:57:04.099Z,23.28
2018-05-15T10:58:06.616Z,23.28
2018-05-15T10:59:09.128Z,23.29
2018-05-15T11:00:11.620Z,23.30
2018-05-15T11:01:14.113Z,23.30
2018-05-15T11:02:16.903Z,23.31
2018-05-15T11:03:19.405Z,23.32
2018-05-15T11:04:21.897Z,23.32
2018-05-15T11:05:24.408Z,23.34
2018-05-15T11:06:26.883Z,23.34
2018-05-15T11:07:29.408Z,23.36
2018-05-15T11:08:31.909Z,23.37
2018-05-15T11:09:34.397Z,23.37
2018-05-15T11:10:36.908Z,23.38
2018-05-15T11:11:39.387Z,23.38
2018-05-15T11:12:42.108Z,23.37
2018-05-15T11:13:44.601Z,23.41
2018-05-15T11:14:47.089Z,23.40
2018-05-15T11:15:49.577Z,23.39
2018-05-15T11:16:52.088Z,23.39
2018-05-15T11:17:54.617Z,23.38
2018-05-15T11:18:57.091Z,23.37
2018-05-15T11:20:11.493Z,23.37
2018-05-15T11:21:25.863Z,23.37
2018-05-15T11:22:40.302Z,23.37
2018-05-15T11:25:21.886Z,23.37
2018-05-15T11:26:24.381Z,23.36
2018-05-15T11:27:26.897Z,23.36
2018-05-15T11:28:29.409Z,23.37
2018-05-15T11:29:31.890Z,23.37
2018-05-15T11:30:34.410Z,23.37
2018-05-15T11:31:36.917Z,23.37
2018-05-15T11:32:39.407Z,23.36
2018-05-15T11:33:41.921Z,23.37
2018-05-15T11:34:44.421Z,23.37
2018-05-15T11:35:47.008Z,23.37
2018-05-15T11:36:49.437Z,23.37
2018-05-15T11:37:51.926Z,23.37
2018-05-15T11:38:54.444Z,23.38
2018-05-15T11:39:56.942Z,23.38
2018-05-15T11:40:59.433Z,23.38
2018-05-15T11:42:01.925Z,23.37
2018-05-15T11:43:04.411Z,23.38
2018-05-15T11:44:06.917Z,23.38
2018-05-15T11:45:09.414Z,23.39
2018-05-15T11:46:11.923Z,23.39
2018-05-15T11:47:14.463Z,23.38
2018-05-15T11:48:17.361Z,23.39
2018-05-15T11:49:20.028Z,23.40
2018-05-15T11:50:22.765Z,23.40
2018-05-15T11:51:25.176Z,23.40
2018-05-15T11:52:27.403Z,23.40
2018-05-15T11:53:29.529Z,23.40
2018-05-15T11:54:32.065Z,23.39
2018-05-15T11:55:35.296Z,23.39
2018-05-15T11:56:37.089Z,23.40
2018-05-15T11:57:39.596Z,23.39
2018-05-15T11:58:42.106Z,23.40
2018-05-15T11:59:44.714Z,23.39
2018-05-15T12:00:47.197Z,23.39
2018-05-15T12:01:49.693Z,23.38
2018-05-15T12:02:52.183Z,23.38
2018-05-15T12:03:54.661Z,23.38
2018-05-15T12:04:57.161Z,23.38
2018-05-15T12:05:59.681Z,23.39
2018-05-15T12:07:02.167Z,23.38
2018-05-15T12:08:04.737Z,23.38
2018-05-15T12:09:07.205Z,23.38
2018-05-15T12:10:09.719Z,23.38
2018-05-15T12:11:12.235Z,23.38
2018-05-15T12:12:14.748Z,23.38
2018-05-15T12:13:17.262Z,23.39
2018-05-15T12:14:19.757Z,23.39
2018-05-15T12:15:22.287Z,23.39
2018-05-15T12:16:24.784Z,23.39
2018-05-15T12:17:27.277Z,23.39
2018-05-15T12:18:29.833Z,23.39
2018-05-15T12:19:32.261Z,23.39
2018-05-15T12:20:34.892Z,23.39
2018-05-15T12:21:37.383Z,23.39
2018-05-15T12:22:39.873Z,23.39
2018-05-15T12:23:42.776Z,23.39
2018-05-15T12:24:45.277Z,23.39
2018-05-15T12:25:47.814Z,23.39
2018-05-15T12:26:50.309Z,23.38
2018-05-15T12:27:52.791Z,23.39
2018-05-15T12:28:55.274Z,23.39
2018-05-15T12:29:57.825Z,23.38
2018-05-15T12:31:00.311Z,23.38
2018-05-15T12:32:02.791Z,23.38
2018-05-15T12:33:05.300Z,23.39
2018-05-15T12:34:07.803Z,23.39
2018-05-15T12:35:10.294Z,23.39
2018-05-15T12:36:12.822Z,23.40
2018-05-15T12:37:15.294Z,23.39
2018-05-15T12:38:17.773Z,23.40
2018-05-15T12:39:20.267Z,23.39
2018-05-15T12:40:22.753Z,23.40
2018-05-15T12:41:25.298Z,23.40
2018-05-15T12:42:27.877Z,23.41
2018-05-15T12:43:30.365Z,23.42
2018-05-15T12:44:32.889Z,23.41
2018-05-15T12:45:35.376Z,23.41
2018-05-15T12:46:37.911Z,23.42
2018-05-15T12:47:40.394Z,23.43
2018-05-15T12:48:43.003Z,23.43
2018-05-15T12:49:45.400Z,23.43
2018-05-15T12:50:47.912Z,23.43
2018-05-15T12:51:50.410Z,23.44
2018-05-15T12:52:52.900Z,23.45
2018-05-15T12:53:55.401Z,23.44
2018-05-15T12:54:57.983Z,23.45
2018-05-15T12:56:00.403Z,23.44
2018-05-15T12:57:03.812Z,23.44
2018-05-15T12:58:06.306Z,23.44
2018-05-15T12:59:08.798Z,23.44
2018-05-15T13:00:11.312Z,23.44
2018-05-15T13:01:13.811Z,23.45
2018-05-15T13:02:16.318Z,23.45
2018-05-15T13:03:18.895Z,23.44
2018-05-15T13:04:21.391Z,23.43
2018-05-15T13:05:23.866Z,23.44
2018-05-15T13:06:26.359Z,23.44
2018-05-15T13:07:28.914Z,23.43
2018-05-15T13:08:31.381Z,23.44
2018-05-15T13:09:33.877Z,23.43
2018-05-15T13:10:36.342Z,23.44
2018-05-15T13:11:38.822Z,23.44
2018-05-15T13:12:41.324Z,23.43
2018-05-15T13:13:43.817Z,23.43
2018-05-15T13:14:46.288Z,23.44
2018-05-15T13:15:48.811Z,23.44
2018-05-15T13:16:51.315Z,23.44
2018-05-15T13:17:53.835Z,23.44
2018-05-15T13:18:56.347Z,23.44
2018-05-15T13:19:58.845Z,23.44
2018-05-15T13:21:01.335Z,23.44
2018-05-15T13:22:03.889Z,23.45
2018-05-15T13:23:06.378Z,23.44
2018-05-15T13:24:08.847Z,23.44
2018-05-15T13:25:11.365Z,23.44
2018-05-15T13:26:13.847Z,23.44
2018-05-15T13:27:16.333Z,23.44
2018-05-15T13:28:18.823Z,23.44